createdAt,value
2024-02-14T00:00:31.073Z,3.98
2024-02-14T00:01:31.164Z,3.98
2024-02-14T00:02:30.958Z,3.95
2024-02-14T00:03:30.869Z,3.95
2024-02-14T00:04:30.726Z,3.96
2024-02-14T00:05:30.679Z,3.88
2024-02-14T00:06:30.604Z,3.92
2024-02-14T00:07:30.479Z,3.98
2024-02-14T00:08:30.402Z,3.91
2024-02-14T00:09:30.291Z,3.94
2024-02-14T00:10:30.209Z,3.96
2024-02-14T00:11:30.183Z,3.95
2024-02-14T00:12:30.043Z,3.94
2024-02-14T00:13:29.978Z,3.88
2024-02-14T00:14:29.887Z,3.96
2024-02-14T00:15:29.778Z,3.95
2024-02-14T00:16:29.707Z,3.95
2024-02-14T00:17:29.650Z,3.95
2024-02-14T00:18:29.729Z,3.96
2024-02-14T00:19:29.493Z,3.99
2024-02-14T00:20:29.372Z,3.86
2024-02-14T00:21:29.260Z,3.80
2024-02-14T00:22:29.173Z,3.76
2024-02-14T00:23:29.109Z,3.63
2024-02-14T00:24:29.000Z,3.65
2024-02-14T00:25:28.914Z,3.62
2024-02-14T00:26:28.835Z,3.58
2024-02-14T00:27:28.730Z,3.60
2024-02-14T00:28:28.852Z,3.60
2024-02-14T00:29:28.657Z,3.65
2024-02-14T00:30:30.772Z,3.56
2024-02-14T00:31:28.401Z,3.51
2024-02-14T00:32:28.559Z,3.47
2024-02-14T00:33:28.470Z,3.44
2024-02-14T00:34:28.269Z,3.45
2024-02-14T00:35:28.195Z,3.45
2024-02-14T00:36:27.979Z,3.32
2024-02-14T00:37:27.876Z,3.31
2024-02-14T00:38:27.833Z,3.36
2024-02-14T00:39:27.692Z,3.25
2024-02-14T00:40:27.622Z,3.16
2024-02-14T00:41:27.559Z,3.26
2024-02-14T00:42:27.438Z,3.19
2024-02-14T00:43:27.353Z,3.16
2024-02-14T00:44:27.359Z,3.19
2024-02-14T00:45:27.183Z,3.11
2024-02-14T00:46:27.097Z,3.11
2024-02-14T00:47:27.073Z,3.04
2024-02-14T00:48:27.002Z,3.11
2024-02-14T00:49:26.928Z,3.04
2024-02-14T00:50:26.781Z,3.00
2024-02-14T00:51:26.672Z,3.04
2024-02-14T00:52:26.577Z,3.05
2024-02-14T00:53:26.542Z,3.07
2024-02-14T00:54:26.451Z,3.03
2024-02-14T00:55:26.324Z,3.01
2024-02-14T00:56:26.268Z,3.01
2024-02-14T00:57:26.149Z,3.01
2024-02-14T00:58:26.056Z,2.98
2024-02-14T00:59:26.115Z,2.98
2024-02-14T01:00:25.878Z,3.04
2024-02-14T01:01:25.785Z,3.01
2024-02-14T01:02:25.733Z,3.00
2024-02-14T01:03:25.689Z,3.04
2024-02-14T01:04:25.538Z,3.11
2024-02-14T01:05:25.604Z,3.05
2024-02-14T01:06:25.453Z,3.05
2024-02-14T01:07:25.276Z,3.05
2024-02-14T01:08:25.204Z,3.07
2024-02-14T01:09:25.102Z,3.07
2024-02-14T01:10:25.010Z,3.05
2024-02-14T01:11:24.951Z,3.03
2024-02-14T01:12:24.853Z,2.98
2024-02-14T01:13:24.750Z,3.01
2024-02-14T01:14:24.676Z,3.03
2024-02-14T01:15:24.580Z,2.93
2024-02-14T01:16:24.488Z,2.89
2024-02-14T01:17:24.497Z,2.86
2024-02-14T01:18:24.365Z,2.97
2024-02-14T01:19:24.286Z,2.89
2024-02-14T01:20:24.151Z,2.92
2024-02-14T01:21:24.049Z,2.97
2024-02-14T01:22:23.968Z,3.00
2024-02-14T01:23:23.927Z,2.97
2024-02-14T01:24:23.790Z,2.93
2024-02-14T01:25:23.708Z,2.95
2024-02-14T01:26:23.742Z,2.93
2024-02-14T01:27:23.536Z,2.93
2024-02-14T01:28:23.456Z,2.93
2024-02-14T01:29:23.389Z,2.97
2024-02-14T01:30:23.283Z,2.89
2024-02-14T01:31:23.192Z,2.89
2024-02-14T01:32:23.092Z,2.95
2024-02-14T01:33:23.098Z,2.95
2024-02-14T01:34:23.024Z,2.97
2024-02-14T01:35:22.836Z,3.00
2024-02-14T01:36:22.752Z,2.93
2024-02-14T01:37:22.657Z,2.93
2024-02-14T01:38:22.590Z,3.04
2024-02-14T01:39:22.511Z,2.98
2024-02-14T01:40:22.403Z,3.01
2024-02-14T01:41:22.355Z,3.04
2024-02-14T01:42:22.227Z,2.95
2024-02-14T01:43:22.145Z,2.97
2024-02-14T01:44:22.069Z,2.93
2024-02-14T01:45:21.983Z,2.93
2024-02-14T01:46:21.886Z,2.95
2024-02-14T01:47:21.786Z,2.92
2024-02-14T01:48:21.811Z,2.92
2024-02-14T01:49:21.836Z,2.86
2024-02-14T01:50:21.533Z,2.89
2024-02-14T01:51:21.446Z,2.97
2024-02-14T01:52:21.358Z,2.87
2024-02-14T01:53:21.281Z,2.95
2024-02-14T01:54:21.209Z,2.86
2024-02-14T01:55:21.101Z,2.85
2024-02-14T01:56:21.007Z,2.86
2024-02-14T01:57:20.921Z,2.97
2024-02-14T01:58:20.843Z,2.89
2024-02-14T01:59:20.752Z,2.92
2024-02-14T02:00:20.668Z,2.85
2024-02-14T02:01:20.606Z,2.83
2024-02-14T02:02:20.493Z,2.85
2024-02-14T02:03:20.458Z,2.87
2024-02-14T02:04:20.316Z,2.87
2024-02-14T02:05:20.297Z,2.83
2024-02-14T02:06:20.216Z,2.90
2024-02-14T02:07:20.056Z,2.86
2024-02-14T02:08:19.976Z,2.82
2024-02-14T02:09:19.881Z,2.86
2024-02-14T02:10:19.841Z,2.92
2024-02-14T02:11:19.711Z,2.90
2024-02-14T02:12:19.620Z,2.92
2024-02-14T02:13:19.534Z,2.97
2024-02-14T02:14:19.448Z,2.83
2024-02-14T02:15:19.394Z,2.93
2024-02-14T02:16:19.280Z,2.89
2024-02-14T02:17:19.188Z,2.95
2024-02-14T02:18:19.249Z,2.97
2024-02-14T02:19:19.155Z,2.93
2024-02-14T02:20:18.979Z,3.03
2024-02-14T02:21:18.907Z,3.05
2024-02-14T02:22:18.757Z,3.04
2024-02-14T02:23:18.664Z,3.08
2024-02-14T02:24:18.572Z,3.00
2024-02-14T02:25:18.496Z,3.08
2024-02-14T02:26:18.409Z,3.08
2024-02-14T02:27:18.321Z,3.16
2024-02-14T02:28:18.242Z,3.14
2024-02-14T02:29:18.142Z,3.14
2024-02-14T02:30:18.122Z,3.13
2024-02-14T02:31:17.980Z,3.16
2024-02-14T02:32:17.880Z,3.13
2024-02-14T02:33:17.868Z,3.19
2024-02-14T02:34:17.922Z,3.08
2024-02-14T02:35:17.624Z,3.18
2024-02-14T02:36:17.543Z,3.10
2024-02-14T02:37:17.446Z,3.11
2024-02-14T02:38:17.357Z,3.18
2024-02-14T02:39:17.276Z,3.19
2024-02-14T02:40:17.185Z,3.10
2024-02-14T02:41:17.100Z,3.18
2024-02-14T02:42:17.026Z,3.21
2024-02-14T02:43:16.927Z,3.22
2024-02-14T02:44:16.870Z,3.19
2024-02-14T02:45:16.747Z,3.11
2024-02-14T02:46:16.675Z,3.13
2024-02-14T02:47:16.584Z,3.10
2024-02-14T02:48:16.560Z,3.08
2024-02-14T02:49:16.575Z,3.14
2024-02-14T02:50:16.329Z,3.13
2024-02-14T02:51:16.226Z,3.08
2024-02-14T02:52:16.145Z,3.11
2024-02-14T02:53:16.055Z,3.16
2024-02-14T02:54:15.988Z,3.16
2024-02-14T02:55:15.892Z,3.19
2024-02-14T02:56:15.796Z,3.19
2024-02-14T02:57:15.713Z,3.16
2024-02-14T02:58:15.628Z,3.25
2024-02-14T02:59:15.553Z,3.22
2024-02-14T03:00:15.457Z,3.26
2024-02-14T03:01:15.358Z,3.22
2024-02-14T03:02:15.276Z,3.21
2024-02-14T03:03:15.222Z,3.22
2024-02-14T03:04:15.129Z,3.13
2024-02-14T03:05:15.054Z,3.13
2024-02-14T03:06:14.996Z,3.13
2024-02-14T03:07:14.896Z,3.16
2024-02-14T03:08:14.765Z,3.22
2024-02-14T03:09:14.671Z,3.21
2024-02-14T03:10:14.575Z,3.29
2024-02-14T03:11:14.497Z,3.29
2024-02-14T03:12:14.434Z,3.32
2024-02-14T03:13:14.322Z,3.34
2024-02-14T03:14:14.244Z,3.25
2024-02-14T03:15:14.185Z,3.37
2024-02-14T03:16:14.087Z,3.28
2024-02-14T03:17:13.976Z,3.41
2024-02-14T03:18:13.953Z,3.47
2024-02-14T03:19:13.912Z,3.48
2024-02-14T03:20:16.594Z,3.45
2024-02-14T03:21:13.658Z,3.50
2024-02-14T03:22:13.534Z,3.68
2024-02-14T03:23:13.454Z,3.55
2024-02-14T03:24:13.390Z,3.58
2024-02-14T03:25:13.273Z,3.59
2024-02-14T03:26:13.184Z,3.68
2024-02-14T03:27:13.186Z,3.69
2024-02-14T03:28:13.016Z,3.73
2024-02-14T03:29:12.930Z,3.77
2024-02-14T03:30:12.892Z,3.81
2024-02-14T03:31:12.754Z,3.74
2024-02-14T03:32:12.675Z,3.81
2024-02-14T03:33:12.788Z,3.87
2024-02-14T03:34:12.589Z,3.84
2024-02-14T03:35:12.408Z,3.83
2024-02-14T03:36:12.384Z,3.86
2024-02-14T03:37:12.226Z,3.87
2024-02-14T03:38:12.160Z,3.86
2024-02-14T03:39:12.080Z,3.86
2024-02-14T03:40:11.979Z,3.91
2024-02-14T03:41:11.892Z,3.91
2024-02-14T03:42:11.823Z,3.91
2024-02-14T03:43:11.719Z,3.96
2024-02-14T03:44:11.631Z,3.91
2024-02-14T03:45:11.637Z,3.91
2024-02-14T03:46:11.454Z,3.99
2024-02-14T03:47:11.363Z,3.95
2024-02-14T03:48:11.378Z,3.92
2024-02-14T03:49:11.375Z,3.91
2024-02-14T03:50:11.114Z,3.95
2024-02-14T03:51:11.045Z,3.91
2024-02-14T03:52:11.030Z,3.88
2024-02-14T03:53:10.857Z,3.92
2024-02-14T03:54:10.854Z,3.86
2024-02-14T03:55:10.671Z,3.88
2024-02-14T03:56:10.585Z,3.78
2024-02-14T03:57:10.623Z,3.86
2024-02-14T03:58:10.418Z,3.84
2024-02-14T03:59:10.328Z,3.88
2024-02-14T04:00:10.361Z,3.86
2024-02-14T04:01:10.179Z,3.86
2024-02-14T04:02:10.070Z,3.88
2024-02-14T04:03:10.032Z,3.83
2024-02-14T04:04:09.908Z,3.83
2024-02-14T04:05:10.209Z,3.78
2024-02-14T04:06:09.787Z,3.83
2024-02-14T04:07:09.868Z,3.84
2024-02-14T04:08:09.569Z,3.86
2024-02-14T04:09:09.494Z,3.81
2024-02-14T04:10:09.398Z,3.81
2024-02-14T04:11:09.307Z,3.76
2024-02-14T04:12:09.216Z,3.74
2024-02-14T04:13:09.111Z,3.77
2024-02-14T04:14:09.027Z,3.80
2024-02-14T04:15:08.969Z,3.88
2024-02-14T04:16:08.848Z,3.83
2024-02-14T04:17:08.832Z,3.81
2024-02-14T04:18:08.818Z,3.80
2024-02-14T04:19:08.716Z,3.76
2024-02-14T04:20:08.516Z,3.84
2024-02-14T04:21:08.527Z,3.81
2024-02-14T04:22:08.350Z,3.78
2024-02-14T04:23:08.252Z,3.84
2024-02-14T04:24:08.189Z,3.81
2024-02-14T04:25:08.069Z,3.76
2024-02-14T04:26:07.986Z,3.76
2024-02-14T04:27:08.032Z,3.77
2024-02-14T04:28:07.809Z,3.74
2024-02-14T04:29:07.725Z,3.78
2024-02-14T04:30:07.689Z,3.77
2024-02-14T04:31:07.553Z,3.77
2024-02-14T04:32:07.480Z,3.69
2024-02-14T04:33:10.430Z,3.68
2024-02-14T04:34:07.375Z,3.66
2024-02-14T04:35:07.281Z,3.73
2024-02-14T04:36:07.227Z,3.70
2024-02-14T04:37:07.028Z,3.60
2024-02-14T04:38:06.943Z,3.78
2024-02-14T04:39:06.894Z,3.65
2024-02-14T04:40:06.765Z,3.76
2024-02-14T04:41:06.704Z,3.62
2024-02-14T04:42:06.683Z,3.68
2024-02-14T04:43:06.541Z,3.60
2024-02-14T04:44:06.564Z,3.65
2024-02-14T04:45:06.369Z,3.62
2024-02-14T04:46:06.248Z,3.60
2024-02-14T04:47:06.251Z,3.70
2024-02-14T04:48:06.256Z,3.66
2024-02-14T04:49:06.096Z,3.63
2024-02-14T04:50:05.980Z,3.65
2024-02-14T04:51:06.086Z,3.69
2024-02-14T04:52:05.740Z,3.73
2024-02-14T04:53:05.640Z,3.58
2024-02-14T04:54:05.620Z,3.66
2024-02-14T04:55:05.466Z,3.62
2024-02-14T04:56:05.390Z,3.66
2024-02-14T04:57:05.310Z,3.68
2024-02-14T04:58:05.212Z,3.58
2024-02-14T04:59:05.120Z,3.65
2024-02-14T05:00:05.094Z,3.56
2024-02-14T05:01:05.009Z,3.60
2024-02-14T05:02:04.868Z,3.60
2024-02-14T05:03:04.967Z,3.66
2024-02-14T05:04:04.748Z,3.60
2024-02-14T05:05:04.613Z,3.62
2024-02-14T05:06:04.598Z,3.58
2024-02-14T05:07:04.510Z,3.62
2024-02-14T05:08:04.334Z,3.56
2024-02-14T05:09:04.382Z,3.56
2024-02-14T05:10:04.177Z,3.58
2024-02-14T05:11:04.079Z,3.62
2024-02-14T05:12:04.092Z,3.62
2024-02-14T05:13:03.901Z,3.55
2024-02-14T05:14:03.813Z,3.48
2024-02-14T05:15:03.762Z,3.48
2024-02-14T05:16:03.641Z,3.48
2024-02-14T05:17:03.565Z,3.44
2024-02-14T05:18:03.605Z,3.51
2024-02-14T05:19:03.606Z,3.42
2024-02-14T05:20:03.308Z,3.47
2024-02-14T05:21:03.282Z,3.45
2024-02-14T05:22:03.118Z,3.41
2024-02-14T05:23:03.039Z,3.45
2024-02-14T05:24:03.044Z,3.42
2024-02-14T05:25:02.858Z,3.28
2024-02-14T05:26:02.781Z,3.44
2024-02-14T05:27:02.720Z,3.37
2024-02-14T05:28:02.606Z,3.40
2024-02-14T05:29:02.512Z,3.25
2024-02-14T05:30:02.480Z,3.26
2024-02-14T05:31:02.337Z,3.32
2024-02-14T05:32:02.259Z,3.26
2024-02-14T05:33:02.370Z,3.22
2024-02-14T05:34:02.208Z,3.28
2024-02-14T05:35:02.149Z,3.29
2024-02-14T05:36:01.942Z,3.26
2024-02-14T05:37:01.812Z,3.29
2024-02-14T05:38:01.734Z,3.34
2024-02-14T05:39:01.678Z,3.34
2024-02-14T05:40:01.549Z,3.31
2024-02-14T05:41:01.468Z,3.32
2024-02-14T05:42:01.455Z,3.31
2024-02-14T05:43:01.303Z,3.29
2024-02-14T05:44:01.205Z,3.25
2024-02-14T05:45:01.162Z,3.28
2024-02-14T05:46:01.052Z,3.32
2024-02-14T05:47:00.943Z,3.25
2024-02-14T05:48:01.086Z,3.25
2024-02-14T05:49:01.102Z,3.29
2024-02-14T05:50:00.776Z,3.25
2024-02-14T05:51:00.637Z,3.25
2024-02-14T05:52:00.536Z,3.22
2024-02-14T05:53:00.452Z,3.32
2024-02-14T05:54:00.385Z,3.22
2024-02-14T05:55:00.244Z,3.23
2024-02-14T05:56:00.174Z,3.31
2024-02-14T05:57:00.132Z,3.26
2024-02-14T05:58:00.041Z,3.25
2024-02-14T05:58:59.906Z,3.34
2024-02-14T05:59:59.861Z,3.37
2024-02-14T06:00:59.806Z,3.37
2024-02-14T06:01:59.640Z,3.32
2024-02-14T06:02:59.681Z,3.29
2024-02-14T06:03:59.512Z,3.34
2024-02-14T06:04:59.374Z,3.31
2024-02-14T06:05:59.343Z,3.45
2024-02-14T06:06:59.252Z,3.25
2024-02-14T06:07:59.105Z,3.42
2024-02-14T06:08:59.577Z,3.28
2024-02-14T06:09:58.940Z,3.29
2024-02-14T06:10:58.849Z,3.31
2024-02-14T06:11:58.794Z,3.36
2024-02-14T06:12:58.765Z,3.31
2024-02-14T06:13:58.612Z,3.26
2024-02-14T06:14:58.534Z,3.28
2024-02-14T06:15:58.418Z,3.42
2024-02-14T06:16:58.329Z,3.40
2024-02-14T06:17:58.274Z,3.44
2024-02-14T06:18:58.623Z,3.41
2024-02-14T06:19:58.117Z,3.47
2024-02-14T06:20:58.000Z,3.37
2024-02-14T06:21:57.894Z,3.47
2024-02-14T06:23:04.800Z,3.41
2024-02-14T06:23:57.776Z,3.41
2024-02-14T06:24:57.637Z,3.40
2024-02-14T06:25:57.550Z,3.40
2024-02-14T06:26:57.497Z,3.50
2024-02-14T06:27:57.376Z,3.48
2024-02-14T06:28:57.297Z,3.56
2024-02-14T06:29:57.213Z,3.45
2024-02-14T06:30:57.116Z,3.47
2024-02-14T06:31:57.024Z,3.51
2024-02-14T06:32:57.085Z,3.50
2024-02-14T06:33:57.110Z,3.53
2024-02-14T06:34:56.983Z,3.47
2024-02-14T06:35:56.899Z,3.55
2024-02-14T06:36:56.589Z,3.53
2024-02-14T06:38:03.487Z,3.59
2024-02-14T06:38:56.449Z,3.60
2024-02-14T06:39:56.330Z,3.58
2024-02-14T06:40:56.245Z,3.59
2024-02-14T06:41:56.181Z,3.66
2024-02-14T06:42:56.235Z,3.68
2024-02-14T06:43:55.979Z,3.69
2024-02-14T06:44:55.915Z,3.70
2024-02-14T06:45:55.817Z,3.68
2024-02-14T06:46:55.721Z,3.68
2024-02-14T06:47:55.811Z,3.66
2024-02-14T06:48:55.793Z,3.65
2024-02-14T06:49:55.490Z,3.69
2024-02-14T06:50:55.410Z,3.63
2024-02-14T06:51:55.295Z,3.65
2024-02-14T06:52:55.201Z,3.65
2024-02-14T06:53:55.145Z,3.73
2024-02-14T06:54:55.030Z,3.77
2024-02-14T06:55:54.939Z,3.78
2024-02-14T06:56:54.914Z,3.80
2024-02-14T06:57:54.767Z,3.78
2024-02-14T06:58:54.682Z,3.76
2024-02-14T06:59:54.626Z,3.86
2024-02-14T07:00:54.542Z,3.84
2024-02-14T07:01:55.630Z,3.94
2024-02-14T07:02:54.387Z,3.95
2024-02-14T07:03:54.278Z,3.95
2024-02-14T07:04:54.161Z,3.96
2024-02-14T07:05:54.126Z,3.94
2024-02-14T07:06:54.116Z,3.96
2024-02-14T07:07:53.897Z,3.94
2024-02-14T07:08:53.865Z,3.95
2024-02-14T07:09:53.721Z,4.01
2024-02-14T07:10:53.636Z,4.01
2024-02-14T07:11:53.604Z,4.05
2024-02-14T07:12:53.464Z,4.08
2024-02-14T07:13:53.386Z,4.12
2024-02-14T07:14:53.355Z,4.16
2024-02-14T07:15:53.206Z,4.19
2024-02-14T07:16:53.127Z,4.12
2024-02-14T07:17:53.114Z,4.17
2024-02-14T07:18:53.026Z,4.14
2024-02-14T07:19:52.936Z,4.20
2024-02-14T07:20:52.826Z,4.12
2024-02-14T07:21:52.685Z,4.24
2024-02-14T07:22:52.600Z,4.26
2024-02-14T07:23:52.565Z,4.14
2024-02-14T07:24:52.428Z,4.20
2024-02-14T07:25:52.345Z,4.30
2024-02-14T07:26:52.296Z,4.22
2024-02-14T07:27:52.183Z,4.20
2024-02-14T07:28:52.102Z,4.22
2024-02-14T07:29:52.172Z,4.34
2024-02-14T07:30:51.906Z,4.24
2024-02-14T07:31:51.861Z,4.24
2024-02-14T07:32:51.792Z,4.23
2024-02-14T07:33:51.795Z,4.34
2024-02-14T07:34:51.578Z,4.26
2024-02-14T07:35:51.514Z,4.44
2024-02-14T07:36:51.389Z,4.41
2024-02-14T07:37:51.295Z,4.48
2024-02-14T07:38:51.246Z,4.48
2024-02-14T07:39:51.139Z,4.45
2024-02-14T07:40:51.049Z,4.44
2024-02-14T07:41:50.965Z,4.48
2024-02-14T07:42:50.883Z,4.59
2024-02-14T07:43:50.792Z,4.66
2024-02-14T07:44:50.787Z,4.66
2024-02-14T07:45:50.642Z,4.67
2024-02-14T07:46:50.528Z,4.67
2024-02-14T07:47:50.483Z,4.66
2024-02-14T07:48:50.531Z,4.70
2024-02-14T07:49:50.462Z,4.60
2024-02-14T07:50:50.189Z,4.70
2024-02-14T07:51:50.112Z,4.71
2024-02-14T07:52:50.048Z,4.78
2024-02-14T07:53:49.938Z,4.70
2024-02-14T07:54:49.834Z,4.75
2024-02-14T07:55:49.749Z,4.77
2024-02-14T07:56:49.668Z,4.77
2024-02-14T07:57:49.583Z,4.67
2024-02-14T07:58:49.492Z,4.78
2024-02-14T07:59:49.440Z,4.71
2024-02-14T08:00:49.335Z,4.77
2024-02-14T08:01:49.361Z,4.75
2024-02-14T08:02:49.163Z,4.82
2024-02-14T08:03:49.105Z,4.82
2024-02-14T08:04:50.516Z,4.82
2024-02-14T08:05:48.954Z,4.86
2024-02-14T08:06:48.818Z,4.93
2024-02-14T08:07:48.717Z,4.93
2024-02-14T08:08:48.673Z,5.00
2024-02-14T08:09:48.552Z,4.97
2024-02-14T08:10:48.460Z,5.05
2024-02-14T08:11:48.452Z,5.05
2024-02-14T08:12:48.288Z,5.07
2024-02-14T08:13:48.207Z,5.10
2024-02-14T08:14:48.137Z,5.14
2024-02-14T08:15:48.037Z,5.10
2024-02-14T08:16:47.953Z,5.25
2024-02-14T08:17:49.616Z,5.25
2024-02-14T08:18:47.854Z,5.28
2024-02-14T08:19:47.945Z,5.18
2024-02-14T08:20:47.645Z,5.12
2024-02-14T08:21:47.513Z,5.07
2024-02-14T08:22:47.437Z,5.07
2024-02-14T08:23:47.349Z,5.11
2024-02-14T08:24:47.263Z,5.14
2024-02-14T08:25:47.181Z,5.14
2024-02-14T08:26:47.123Z,5.20
2024-02-14T08:27:47.012Z,5.28
2024-02-14T08:28:46.910Z,5.28
2024-02-14T08:29:47.030Z,5.29
2024-02-14T08:30:46.737Z,5.18
2024-02-14T08:31:46.658Z,5.23
2024-02-14T08:32:46.732Z,5.20
2024-02-14T08:33:46.699Z,5.25
2024-02-14T08:34:46.500Z,5.25
2024-02-14T08:35:46.326Z,5.30
2024-02-14T08:36:46.240Z,5.28
2024-02-14T08:37:46.160Z,5.35
2024-02-14T08:38:46.101Z,5.30
2024-02-14T08:39:45.983Z,5.33
2024-02-14T08:40:45.890Z,5.38
2024-02-14T08:41:45.809Z,5.33
2024-02-14T08:42:45.753Z,5.28
2024-02-14T08:43:47.726Z,5.43
2024-02-14T08:44:45.569Z,5.33
2024-02-14T08:45:45.470Z,5.39
2024-02-14T08:46:45.403Z,5.44
2024-02-14T08:47:45.346Z,5.35
2024-02-14T08:48:45.225Z,5.43
2024-02-14T08:49:45.128Z,5.50
2024-02-14T08:50:45.053Z,5.47
2024-02-14T08:51:44.956Z,5.53
2024-02-14T08:52:44.871Z,5.46
2024-02-14T08:53:45.220Z,5.50
2024-02-14T08:54:44.708Z,5.56
2024-02-14T08:55:44.601Z,5.65
2024-02-14T08:56:44.587Z,5.65
2024-02-14T08:57:44.439Z,5.61
2024-02-14T08:58:44.360Z,5.61
2024-02-14T08:59:44.280Z,5.68
2024-02-14T09:00:44.212Z,5.80
2024-02-14T09:01:44.173Z,5.80
2024-02-14T09:02:44.062Z,5.89
2024-02-14T09:03:43.969Z,5.91
2024-02-14T09:04:43.860Z,5.93
2024-02-14T09:05:43.814Z,6.07
2024-02-14T09:06:43.796Z,6.09
2024-02-14T09:07:43.572Z,6.16
2024-02-14T09:08:43.510Z,6.11
2024-02-14T09:09:43.404Z,6.20
2024-02-14T09:10:43.344Z,6.24
2024-02-14T09:11:43.285Z,6.26
2024-02-14T09:12:43.149Z,6.26
2024-02-14T09:13:43.093Z,6.20
2024-02-14T09:14:42.992Z,6.24
2024-02-14T09:15:42.900Z,6.16
2024-02-14T09:16:42.813Z,6.05
2024-02-14T09:17:42.835Z,6.16
2024-02-14T09:18:42.809Z,6.14
2024-02-14T09:19:42.622Z,6.09
2024-02-14T09:20:42.623Z,6.27
2024-02-14T09:21:42.473Z,6.19
2024-02-14T09:22:42.335Z,6.26
2024-02-14T09:23:42.245Z,6.26
2024-02-14T09:24:42.126Z,6.31
2024-02-14T09:25:42.053Z,6.26
2024-02-14T09:26:42.018Z,6.28
2024-02-14T09:27:41.867Z,6.30
2024-02-14T09:28:41.805Z,6.31
2024-02-14T09:29:41.777Z,6.33
2024-02-14T09:30:41.743Z,6.35
2024-02-14T09:31:41.533Z,6.39
2024-02-14T09:32:41.568Z,6.42
2024-02-14T09:33:41.868Z,6.36
2024-02-14T09:34:41.432Z,6.46
2024-02-14T09:35:41.223Z,6.45
2024-02-14T09:36:41.101Z,6.45
2024-02-14T09:37:41.036Z,6.48
2024-02-14T09:38:40.994Z,6.62
2024-02-14T09:39:40.857Z,6.62
2024-02-14T09:40:40.760Z,6.66
2024-02-14T09:41:40.723Z,6.69
2024-02-14T09:42:40.626Z,6.78
2024-02-14T09:43:40.504Z,6.69
2024-02-14T09:44:40.430Z,6.77
2024-02-14T09:45:40.364Z,6.84
2024-02-14T09:46:40.279Z,6.95
2024-02-14T09:47:40.328Z,6.93
2024-02-14T09:48:40.265Z,7.00
2024-02-14T09:49:40.157Z,7.05
2024-02-14T09:50:39.928Z,6.96
2024-02-14T09:51:39.830Z,7.00
2024-02-14T09:52:39.744Z,6.96
2024-02-14T09:53:39.697Z,7.05
2024-02-14T09:54:39.577Z,7.13
2024-02-14T09:55:39.492Z,7.11
2024-02-14T09:56:39.481Z,7.15
2024-02-14T09:57:39.318Z,7.24
2024-02-14T09:58:39.250Z,7.23
2024-02-14T09:59:39.181Z,7.23
2024-02-14T10:00:39.178Z,7.17
2024-02-14T10:01:39.012Z,7.15
2024-02-14T10:02:38.916Z,7.21
2024-02-14T10:03:38.828Z,7.25
2024-02-14T10:04:38.743Z,7.29
2024-02-14T10:05:38.712Z,7.38
2024-02-14T10:06:38.609Z,7.36
2024-02-14T10:07:38.482Z,7.47
2024-02-14T10:08:42.520Z,7.50
2024-02-14T10:09:38.336Z,7.50
2024-02-14T10:10:38.221Z,7.54
2024-02-14T10:11:38.193Z,7.48
2024-02-14T10:12:38.059Z,7.53
2024-02-14T10:13:37.989Z,7.57
2024-02-14T10:14:37.908Z,7.58
2024-02-14T10:15:37.802Z,7.67
2024-02-14T10:16:37.732Z,7.70
2024-02-14T10:17:37.713Z,7.57
2024-02-14T10:18:37.650Z,7.60
2024-02-14T10:19:37.507Z,7.58
2024-02-14T10:20:37.402Z,7.61
2024-02-14T10:21:37.302Z,7.57
2024-02-14T10:22:37.287Z,7.61
2024-02-14T10:23:37.169Z,7.57
2024-02-14T10:24:37.057Z,7.57
2024-02-14T10:25:36.980Z,7.67
2024-02-14T10:26:36.936Z,7.72
2024-02-14T10:27:36.806Z,7.70
2024-02-14T10:28:40.940Z,7.72
2024-02-14T10:29:36.645Z,7.75
2024-02-14T10:30:36.553Z,7.69
2024-02-14T10:31:36.455Z,7.69
2024-02-14T10:32:36.443Z,7.66
2024-02-14T10:33:36.330Z,7.66
2024-02-14T10:34:36.369Z,7.75
2024-02-14T10:35:36.222Z,7.72
2024-02-14T10:36:36.051Z,7.67
2024-02-14T10:37:35.954Z,7.69
2024-02-14T10:38:35.961Z,7.69
2024-02-14T10:39:35.781Z,7.73
2024-02-14T10:40:35.706Z,7.58
2024-02-14T10:41:35.641Z,7.58
2024-02-14T10:42:35.560Z,7.61
2024-02-14T10:43:35.444Z,7.57
2024-02-14T10:44:35.431Z,7.56
2024-02-14T10:45:35.287Z,7.69
2024-02-14T10:46:35.196Z,7.66
2024-02-14T10:47:35.378Z,7.70
2024-02-14T10:48:35.579Z,7.75
2024-02-14T10:49:35.227Z,7.70
2024-02-14T10:50:34.894Z,7.69
2024-02-14T10:51:34.787Z,7.70
2024-02-14T10:52:34.712Z,7.67
2024-02-14T10:53:34.730Z,7.75
2024-02-14T10:54:34.548Z,7.63
2024-02-14T10:55:34.441Z,7.73
2024-02-14T10:56:34.558Z,7.76
2024-02-14T10:57:34.272Z,7.70
2024-02-14T10:58:34.259Z,7.76
2024-02-14T10:59:34.155Z,7.77
2024-02-14T11:00:34.044Z,7.76
2024-02-14T11:01:33.938Z,7.70
2024-02-14T11:02:33.980Z,7.70
2024-02-14T11:03:33.881Z,7.70
2024-02-14T11:04:33.704Z,7.73
2024-02-14T11:05:33.648Z,7.72
2024-02-14T11:06:33.683Z,7.69
2024-02-14T11:07:33.440Z,7.75
2024-02-14T11:08:33.409Z,7.70
2024-02-14T11:09:34.309Z,7.75
2024-02-14T11:10:33.221Z,7.72
2024-02-14T11:11:33.121Z,7.72
2024-02-14T11:12:33.019Z,7.79
2024-02-14T11:13:33.081Z,7.72
2024-02-14T11:14:32.925Z,7.76
2024-02-14T11:15:32.804Z,7.73
2024-02-14T11:16:32.693Z,7.66
2024-02-14T11:17:32.691Z,7.63
2024-02-14T11:18:32.706Z,7.72
2024-02-14T11:19:32.703Z,7.75
2024-02-14T11:20:32.460Z,7.69
2024-02-14T11:21:32.275Z,7.67
2024-02-14T11:22:32.173Z,7.67
2024-02-14T11:23:32.153Z,7.76
2024-02-14T11:24:32.021Z,7.79
2024-02-14T11:25:31.926Z,7.75
2024-02-14T11:26:31.914Z,7.82
2024-02-14T11:27:34.670Z,7.93
2024-02-14T11:28:31.661Z,7.93
2024-02-14T11:29:31.615Z,7.88
2024-02-14T11:30:31.505Z,7.88
2024-02-14T11:31:31.421Z,7.94
2024-02-14T11:32:31.416Z,7.98
2024-02-14T11:33:31.368Z,8.01
2024-02-14T11:34:31.221Z,8.01
2024-02-14T11:35:31.132Z,7.93
2024-02-14T11:36:31.010Z,7.94
2024-02-14T11:37:30.951Z,8.12
2024-02-14T11:38:30.859Z,8.20
2024-02-14T11:39:30.756Z,8.26
2024-02-14T11:40:30.661Z,8.33
2024-02-14T11:41:31.809Z,8.31
2024-02-14T11:42:30.522Z,8.52
2024-02-14T11:43:30.409Z,9.18
2024-02-14T11:44:30.428Z,9.50
2024-02-14T11:45:30.244Z,9.64
2024-02-14T11:46:30.174Z,9.55
2024-02-14T11:47:30.138Z,9.50
2024-02-14T11:48:30.175Z,9.43
2024-02-14T11:49:30.089Z,9.39
2024-02-14T11:50:29.865Z,9.29
2024-02-14T11:51:29.745Z,9.22
2024-02-14T11:52:29.662Z,9.06
2024-02-14T11:53:29.686Z,9.02
2024-02-14T11:54:29.539Z,9.13
2024-02-14T11:55:29.408Z,9.06
2024-02-14T11:56:29.329Z,8.95
2024-02-14T11:57:29.247Z,8.97
2024-02-14T11:58:29.181Z,8.91
2024-02-14T11:59:29.092Z,8.94
2024-02-14T12:00:29.043Z,8.89
2024-02-14T12:01:30.258Z,8.97
2024-02-14T12:02:28.829Z,8.92
2024-02-14T12:03:28.749Z,8.89
2024-02-14T12:04:28.671Z,8.89
2024-02-14T12:05:28.600Z,8.82
2024-02-14T12:06:28.546Z,8.84
2024-02-14T12:07:28.526Z,8.74
2024-02-14T12:08:28.451Z,8.79
2024-02-14T12:09:30.748Z,8.81
2024-02-14T12:10:28.162Z,8.82
2024-02-14T12:11:28.083Z,8.78
2024-02-14T12:12:27.995Z,8.70
2024-02-14T12:13:27.942Z,8.76
2024-02-14T12:14:27.868Z,8.64
2024-02-14T12:15:27.752Z,8.63
2024-02-14T12:16:27.677Z,8.60
2024-02-14T12:17:27.607Z,8.63
2024-02-14T12:18:27.579Z,8.58
2024-02-14T12:19:30.123Z,8.60
2024-02-14T12:20:27.336Z,8.61
2024-02-14T12:21:27.271Z,8.58
2024-02-14T12:22:27.193Z,8.63
2024-02-14T12:23:27.141Z,8.60
2024-02-14T12:24:26.998Z,8.70
2024-02-14T12:25:26.915Z,8.67
2024-02-14T12:26:26.838Z,8.76
2024-02-14T12:27:26.749Z,8.78
2024-02-14T12:28:26.666Z,8.92
2024-02-14T12:29:26.602Z,8.92
2024-02-14T12:30:26.537Z,8.99
2024-02-14T12:31:26.418Z,9.10
2024-02-14T12:32:26.368Z,9.06
2024-02-14T12:33:26.680Z,9.14
2024-02-14T12:34:26.303Z,9.22
2024-02-14T12:35:26.091Z,9.36
2024-02-14T12:36:26.016Z,9.48
2024-02-14T12:37:25.915Z,9.64
2024-02-14T12:38:25.841Z,9.72
2024-02-14T12:39:25.766Z,9.84
2024-02-14T12:40:25.682Z,9.84
2024-02-14T12:41:25.594Z,9.83
2024-02-14T12:42:25.505Z,9.89
2024-02-14T12:43:25.427Z,9.89
2024-02-14T12:44:25.341Z,9.94
2024-02-14T12:45:25.298Z,10.25
2024-02-14T12:46:25.188Z,11.07
2024-02-14T12:47:25.126Z,11.77
2024-02-14T12:48:25.293Z,12.02
2024-02-14T12:49:25.004Z,12.35
2024-02-14T12:50:24.946Z,12.35
2024-02-14T12:51:24.810Z,12.29
2024-02-14T12:52:24.684Z,12.36
2024-02-14T12:53:24.609Z,12.94
2024-02-14T12:54:24.546Z,13.39
2024-02-14T12:55:24.444Z,13.97
2024-02-14T12:56:24.362Z,14.50
2024-02-14T12:57:24.308Z,15.44
2024-02-14T12:58:24.205Z,15.82
2024-02-14T12:59:24.128Z,16.35
2024-02-14T13:00:24.205Z,17.20
2024-02-14T13:01:24.144Z,18.28
2024-02-14T13:02:23.888Z,19.59
2024-02-14T13:03:23.949Z,20.32
2024-02-14T13:04:23.817Z,21.02
2024-02-14T13:05:23.668Z,20.93
2024-02-14T13:06:23.669Z,20.24
2024-02-14T13:07:23.576Z,19.22
2024-02-14T13:08:23.433Z,18.37
2024-02-14T13:09:23.465Z,17.63
2024-02-14T13:10:23.269Z,17.02
2024-02-14T13:11:23.197Z,16.26
2024-02-14T13:12:23.130Z,15.97
2024-02-14T13:13:23.045Z,15.70
2024-02-14T13:14:22.989Z,15.49
2024-02-14T13:15:22.895Z,15.44
2024-02-14T13:16:22.824Z,15.39